Time;durP1;ratioP1;P1;durP2;ratioP2;P2;SDS_P1;SDS_P2;PMS_P1;PMS_P2;Temp;Humidity;BMP_temperature;BMP_pressure;BME280_temperature;BME280_humidity;BME280_pressure;Samples;Min_cycle;Max_cycle;Signal;HPM_P1;HPM_P2
2023/03/11 00:02:15;;;;;;;112.03;47.65;;;;;;;;;;5054551;28;20031;-77
2023/03/11 00:04:41;;;;;;;102.47;45.35;;;;;;;;;;5036776;28;20035;-76
2023/03/11 00:07:07;;;;;;;100.53;43.05;;;;;;;;;;5036936;28;20090;-76
2023/03/11 00:09:33;;;;;;;107.00;42.53;;;;;;;;;;5020344;28;20064;-76
2023/03/11 00:11:58;;;;;;;98.78;42.15;;;;;;;;;;5054320;28;20446;-77
2023/03/11 00:14:24;;;;;;;108.03;44.15;;;;;;;;;;5036492;28;20522;-78
2023/03/11 00:16:51;;;;;;;128.82;54.85;;;;;;;;;;5054328;28;20024;-76
2023/03/11 00:19:16;;;;;;;160.15;66.10;;;;;;;;;;5070004;28;20025;-76
2023/03/11 00:21:41;;;;;;;217.13;84.78;;;;;;;;;;5054387;28;20588;-76
2023/03/11 00:24:07;;;;;;;200.10;79.15;;;;;;;;;;5054260;28;20035;-76
2023/03/11 00:26:32;;;;;;;180.18;72.22;;;;;;;;;;5053002;28;20033;-77
2023/03/11 00:28:58;;;;;;;189.52;75.38;;;;;;;;;;5054134;28;20068;-77
2023/03/11 00:31:25;;;;;;;185.30;70.75;;;;;;;;;;5052905;28;20075;-76
2023/03/11 00:33:51;;;;;;;161.48;66.18;;;;;;;;;;5052570;28;20032;-77
2023/03/11 00:36:23;;;;;;;163.98;67.07;;;;;;;;;;5052786;28;20466;-76
2023/03/11 00:38:49;;;;;;;152.55;59.42;;;;;;;;;;5036325;28;20044;-77
2023/03/11 00:41:15;;;;;;;171.00;63.70;;;;;;;;;;5036193;28;20112;-77
2023/03/11 00:43:40;;;;;;;149.57;59.10;;;;;;;;;;5053777;28;20108;-75
2023/03/11 00:46:06;;;;;;;139.27;54.47;;;;;;;;;;5036322;28;20097;-76
2023/03/11 00:48:31;;;;;;;156.48;57.53;;;;;;;;;;5053621;28;20376;-76
2023/03/11 00:50:57;;;;;;;155.18;60.90;;;;;;;;;;5052596;28;20036;-76
2023/03/11 00:53:22;;;;;;;154.27;58.85;;;;;;;;;;5054126;28;20124;-77
2023/03/11 00:55:47;;;;;;;161.00;60.70;;;;;;;;;;5053838;28;20116;-77
2023/03/11 00:58:13;;;;;;;147.55;54.50;;;;;;;;;;5052682;28;20033;-76
2023/03/11 01:00:38;;;;;;;147.75;51.63;;;;;;;;;;5035960;28;20029;-77
2023/03/11 01:03:04;;;;;;;124.32;43.55;;;;;;;;;;5053475;28;20032;-77
2023/03/11 01:05:30;;;;;;;127.57;41.50;;;;;;;;;;5019506;28;20138;-76
2023/03/11 01:07:56;;;;;;;130.18;43.05;;;;;;;;;;5036049;28;20417;-76
2023/03/11 01:10:21;;;;;;;136.07;43.65;;;;;;;;;;5035883;28;20017;-77
2023/03/11 01:12:47;;;;;;;158.02;50.10;;;;;;;;;;5053503;28;20065;-77
2023/03/11 01:15:21;;;;;;;153.98;46.72;;;;;;;;;;5053944;28;20032;-77
2023/03/11 01:17:46;;;;;;;139.52;45.50;;;;;;;;;;5036134;28;20036;-77
2023/03/11 01:20:12;;;;;;;135.80;45.28;;;;;;;;;;5035899;28;20029;-77
2023/03/11 01:22:38;;;;;;;145.20;44.42;;;;;;;;;;5035991;28;20060;-77
2023/03/11 01:25:03;;;;;;;149.23;46.63;;;;;;;;;;5053552;28;20025;-76
2023/03/11 01:27:29;;;;;;;144.80;46.03;;;;;;;;;;5053550;28;20060;-77
2023/03/11 01:29:55;;;;;;;140.40;44.95;;;;;;;;;;5035835;28;20083;-76
2023/03/11 01:32:20;;;;;;;126.63;42.42;;;;;;;;;;5035418;28;20040;-77
2023/03/11 01:34:46;;;;;;;111.75;39.92;;;;;;;;;;5019320;28;20439;-77
2023/03/11 01:37:11;;;;;;;131.18;43.97;;;;;;;;;;5035633;28;20029;-77
2023/03/11 01:39:37;;;;;;;134.30;45.42;;;;;;;;;;5052050;28;20959;-77
2023/03/11 01:42:02;;;;;;;124.75;45.00;;;;;;;;;;5035758;28;20432;-77
2023/03/11 01:44:28;;;;;;;131.32;45.22;;;;;;;;;;5019295;28;20434;-77
2023/03/11 01:46:53;;;;;;;124.20;46.13;;;;;;;;;;5051857;28;20500;-77
2023/03/11 01:49:22;;;;;;;138.30;50.75;;;;;;;;;;5053205;28;20025;-77
2023/03/11 01:51:50;;;;;;;138.55;49.13;;;;;;;;;;5051895;28;20028;-76
2023/03/11 01:54:20;;;;;;;154.90;57.28;;;;;;;;;;5020058;28;20037;-76
2023/03/11 01:56:46;;;;;;;158.60;56.40;;;;;;;;;;5039575;28;20109;-77
2023/03/11 01:59:13;;;;;;;143.32;53.00;;;;;;;;;;5039366;28;20447;-77
2023/03/11 02:01:43;;;;;;;136.77;49.10;;;;;;;;;;5039072;28;20139;-77
2023/03/11 02:04:08;;;;;;;114.45;42.03;;;;;;;;;;5039271;28;20044;-77
2023/03/11 02:06:34;;;;;;;119.57;41.03;;;;;;;;;;5039015;28;20098;-77
2023/03/11 02:08:59;;;;;;;140.93;49.60;;;;;;;;;;5039031;28;20390;-77
2023/03/11 02:11:26;;;;;;;110.88;38.60;;;;;;;;;;5038834;28;20088;-77
2023/03/11 02:13:53;;;;;;;87.88;32.60;;;;;;;;;;5039004;28;20078;-77
2023/03/11 02:16:18;;;;;;;79.25;29.35;;;;;;;;;;5038645;28;20036;-76
2023/03/11 02:18:44;;;;;;;78.53;28.42;;;;;;;;;;5056520;28;20024;-76
2023/03/11 02:21:15;;;;;;;60.33;23.17;;;;;;;;;;5055542;28;20029;-77
2023/03/11 02:24:13;;;;;;;51.83;20.20;;;;;;;;;;5038845;28;20069;-77
2023/03/11 02:26:57;;;;;;;40.80;17.45;;;;;;;;;;5055333;28;20025;-77
2023/03/11 02:29:23;;;;;;;40.10;16.73;;;;;;;;;;5055283;28;20121;-78
2023/03/11 02:31:49;;;;;;;39.85;16.05;;;;;;;;;;5055097;28;20132;-78
2023/03/11 02:34:25;;;;;;;33.97;13.80;;;;;;;;;;5055442;28;20119;-77
2023/03/11 02:36:50;;;;;;;28.08;12.73;;;;;;;;;;5022460;28;20095;-77
2023/03/11 02:39:16;;;;;;;23.73;11.02;;;;;;;;;;5055113;28;20459;-77
2023/03/11 02:41:43;;;;;;;46.53;20.77;;;;;;;;;;5055510;28;20059;-77
2023/03/11 02:44:10;;;;;;;41.58;20.70;;;;;;;;;;5054801;28;20082;-77
2023/03/11 02:46:36;;;;;;;40.65;20.70;;;;;;;;;;5038356;28;20424;-77
2023/03/11 02:49:01;;;;;;;32.75;16.92;;;;;;;;;;5038471;28;20037;-77
2023/03/11 02:51:27;;;;;;;22.98;13.48;;;;;;;;;;5038351;28;20100;-77
2023/03/11 02:53:55;;;;;;;18.27;10.88;;;;;;;;;;5054882;28;20072;-78
2023/03/11 02:56:21;;;;;;;16.45;10.07;;;;;;;;;;5038588;28;20045;-77
2023/03/11 02:58:47;;;;;;;11.88;6.38;;;;;;;;;;5055030;28;20450;-77
2023/03/11 03:01:12;;;;;;;11.25;6.50;;;;;;;;;;5071252;28;20068;-77
2023/03/11 03:03:38;;;;;;;5.32;3.38;;;;;;;;;;5055819;28;20039;-77
2023/03/11 03:06:04;;;;;;;6.55;3.70;;;;;;;;;;5054513;28;20029;-77
2023/03/11 03:08:29;;;;;;;7.60;3.17;;;;;;;;;;5038033;28;20535;-77
2023/03/11 03:10:54;;;;;;;6.47;3.33;;;;;;;;;;5055500;28;20064;-77
2023/03/11 03:13:20;;;;;;;9.88;3.22;;;;;;;;;;5037780;28;20091;-77
2023/03/11 03:15:45;;;;;;;5.72;3.65;;;;;;;;;;5037927;28;20033;-77
2023/03/11 03:18:11;;;;;;;9.27;3.83;;;;;;;;;;5055709;28;20029;-76
2023/03/11 03:20:36;;;;;;;7.78;4.00;;;;;;;;;;5054602;28;20035;-77
2023/03/11 03:23:01;;;;;;;11.13;4.63;;;;;;;;;;5055394;28;20029;-77
2023/03/11 03:25:27;;;;;;;7.38;4.50;;;;;;;;;;5054429;28;20457;-76
2023/03/11 03:27:53;;;;;;;9.07;5.30;;;;;;;;;;5054170;28;20045;-77
2023/03/11 03:30:18;;;;;;;9.48;5.68;;;;;;;;;;5021248;28;20446;-77
2023/03/11 03:32:43;;;;;;;11.55;5.97;;;;;;;;;;5053986;28;20508;-77
2023/03/11 03:35:09;;;;;;;8.45;5.40;;;;;;;;;;5055204;28;20573;-77
2023/03/11 03:37:35;;;;;;;10.20;5.35;;;;;;;;;;5054582;28;20108;-77
2023/03/11 03:40:01;;;;;;;13.05;5.07;;;;;;;;;;5037516;28;20091;-77
2023/03/11 03:42:26;;;;;;;8.38;4.85;;;;;;;;;;5053575;28;20083;-77
2023/03/11 03:44:52;;;;;;;8.95;4.85;;;;;;;;;;5037057;28;20029;-77
2023/03/11 03:47:18;;;;;;;5.80;4.32;;;;;;;;;;5053805;28;20029;-77
2023/03/11 03:49:43;;;;;;;6.85;4.38;;;;;;;;;;5054860;28;20031;-77
2023/03/11 03:52:09;;;;;;;7.53;4.10;;;;;;;;;;5054832;28;20037;-77
2023/03/11 03:54:35;;;;;;;9.05;4.68;;;;;;;;;;5053707;28;20122;-77
2023/03/11 03:57:01;;;;;;;7.55;5.03;;;;;;;;;;5053672;28;20033;-77
2023/03/11 03:59:27;;;;;;;8.68;5.40;;;;;;;;;;5053688;28;20028;-77
2023/03/11 04:01:52;;;;;;;10.18;6.10;;;;;;;;;;5036933;28;20068;-77
2023/03/11 04:04:18;;;;;;;7.65;5.57;;;;;;;;;;5053532;28;20033;-78
2023/03/11 04:06:44;;;;;;;8.70;5.57;;;;;;;;;;5054024;28;20045;-77
2023/03/11 04:09:10;;;;;;;8.60;6.07;;;;;;;;;;5053477;28;20039;-78
2023/03/11 04:11:36;;;;;;;9.70;5.57;;;;;;;;;;5036279;28;20132;-78
2023/03/11 04:14:02;;;;;;;8.40;5.97;;;;;;;;;;5036832;28;20033;-77
2023/03/11 04:16:27;;;;;;;8.65;5.60;;;;;;;;;;5036906;28;20036;-77
2023/03/11 04:18:52;;;;;;;9.95;6.05;;;;;;;;;;5052884;28;20028;-77
2023/03/11 04:21:18;;;;;;;14.73;8.35;;;;;;;;;;5053130;28;20033;-77
2023/03/11 04:23:43;;;;;;;16.45;9.60;;;;;;;;;;5053497;28;20366;-77
2023/03/11 04:26:09;;;;;;;14.38;9.55;;;;;;;;;;5036380;28;20451;-77
2023/03/11 04:28:34;;;;;;;14.30;9.68;;;;;;;;;;5053110;28;20492;-77
2023/03/11 04:30:59;;;;;;;18.95;8.73;;;;;;;;;;5054187;28;20037;-77
2023/03/11 04:33:25;;;;;;;13.25;8.95;;;;;;;;;;5053264;28;20066;-78
2023/03/11 04:35:50;;;;;;;14.40;9.23;;;;;;;;;;5054413;28;20032;-77
2023/03/11 04:38:16;;;;;;;13.10;7.85;;;;;;;;;;5054053;28;20117;-76
2023/03/11 04:40:41;;;;;;;12.88;7.55;;;;;;;;;;5036315;28;20135;-77
2023/03/11 04:43:07;;;;;;;11.05;7.30;;;;;;;;;;5054128;28;20025;-78
2023/03/11 04:45:32;;;;;;;15.30;8.27;;;;;;;;;;5052997;28;20349;-77
2023/03/11 04:47:58;;;;;;;12.20;8.23;;;;;;;;;;5052789;28;20454;-77
2023/03/11 04:50:23;;;;;;;12.13;8.20;;;;;;;;;;5036532;28;20025;-78
2023/03/11 04:52:48;;;;;;;14.73;8.73;;;;;;;;;;5036485;28;20048;-77
2023/03/11 04:55:14;;;;;;;16.10;7.97;;;;;;;;;;5052574;28;20033;-78
2023/03/11 04:57:40;;;;;;;12.52;7.60;;;;;;;;;;5036211;28;20037;-77
2023/03/11 05:00:10;;;;;;;14.65;7.25;;;;;;;;;;5036143;28;20083;-77
2023/03/11 05:02:36;;;;;;;11.25;6.80;;;;;;;;;;5037020;28;20047;-78
2023/03/11 05:05:02;;;;;;;12.20;7.38;;;;;;;;;;5036550;28;20390;-77
2023/03/11 05:07:28;;;;;;;14.70;5.78;;;;;;;;;;5053786;28;20029;-77
2023/03/11 05:09:54;;;;;;;13.43;5.18;;;;;;;;;;5053681;28;20048;-79
2023/03/11 05:12:19;;;;;;;6.88;4.75;;;;;;;;;;5053800;28;20033;-76
2023/03/11 05:14:44;;;;;;;6.63;4.22;;;;;;;;;;5053702;28;20028;-79
2023/03/11 05:17:12;;;;;;;8.05;3.88;;;;;;;;;;5053790;28;20017;-76
2023/03/11 05:19:37;;;;;;;6.03;3.83;;;;;;;;;;5036384;28;20025;-76
2023/03/11 05:22:03;;;;;;;6.13;3.90;;;;;;;;;;5036010;28;20544;-77
2023/03/11 05:24:28;;;;;;;7.05;4.80;;;;;;;;;;5052553;28;20027;-77
2023/03/11 05:26:54;;;;;;;9.43;5.28;;;;;;;;;;5036202;28;20036;-77
2023/03/11 05:29:20;;;;;;;10.50;5.50;;;;;;;;;;5053274;28;20367;-76
2023/03/11 05:31:45;;;;;;;11.48;5.05;;;;;;;;;;5023322;28;20048;-79
2023/03/11 05:34:11;;;;;;;7.80;4.53;;;;;;;;;;5056699;28;20028;-79
2023/03/11 05:36:37;;;;;;;10.60;4.75;;;;;;;;;;5056446;28;20580;-79
2023/03/11 05:39:02;;;;;;;12.70;6.05;;;;;;;;;;5039245;28;20041;-79
2023/03/11 05:41:28;;;;;;;17.15;8.02;;;;;;;;;;5039759;28;20057;-78
2023/03/11 05:43:54;;;;;;;10.15;5.57;;;;;;;;;;5056347;28;20100;-79
2023/03/11 05:46:19;;;;;;;13.77;6.97;;;;;;;;;;5072847;28;20024;-78
2023/03/11 05:48:45;;;;;;;13.45;6.80;;;;;;;;;;5056271;28;20366;-78
2023/03/11 05:51:11;;;;;;;12.07;6.82;;;;;;;;;;5056170;28;20021;-77
2023/03/11 05:53:36;;;;;;;12.00;6.93;;;;;;;;;;5055831;28;20025;-78
2023/03/11 05:56:02;;;;;;;18.92;7.15;;;;;;;;;;5039610;28;20447;-79
2023/03/11 05:58:28;;;;;;;11.10;6.93;;;;;;;;;;5057110;28;20017;-79
2023/03/11 06:00:53;;;;;;;13.88;7.32;;;;;;;;;;5039350;28;20025;-78
2023/03/11 06:03:18;;;;;;;15.07;6.50;;;;;;;;;;5056018;28;20162;-78
2023/03/11 06:05:47;;;;;;;10.32;6.45;;;;;;;;;;5039111;28;20083;-78
2023/03/11 06:08:13;;;;;;;13.80;6.50;;;;;;;;;;5056044;28;20025;-79
2023/03/11 06:10:39;;;;;;;10.90;5.88;;;;;;;;;;5055868;28;20493;-79
2023/03/11 06:13:04;;;;;;;12.35;6.45;;;;;;;;;;5056189;28;20112;-78
2023/03/11 06:15:32;;;;;;;9.75;6.13;;;;;;;;;;5039078;28;20448;-78
2023/03/11 06:17:58;;;;;;;12.98;6.57;;;;;;;;;;5039188;28;20029;-76
2023/03/11 06:20:24;;;;;;;14.60;6.40;;;;;;;;;;5055491;28;20059;-79
2023/03/11 06:22:49;;;;;;;11.52;6.07;;;;;;;;;;5056444;28;20126;-78
2023/03/11 06:25:14;;;;;;;12.07;5.95;;;;;;;;;;5055724;28;20108;-78
2023/03/11 06:27:40;;;;;;;10.50;5.90;;;;;;;;;;5055373;28;20358;-78
2023/03/11 06:30:06;;;;;;;15.35;7.35;;;;;;;;;;5055266;28;20194;-78
2023/03/11 06:32:33;;;;;;;18.88;8.85;;;;;;;;;;5055651;28;20134;-79
2023/03/11 06:34:59;;;;;;;21.20;10.45;;;;;;;;;;5055278;28;20029;-78
2023/03/11 06:37:24;;;;;;;19.13;9.45;;;;;;;;;;5038559;28;20061;-78
2023/03/11 06:39:53;;;;;;;18.40;8.95;;;;;;;;;;5054651;28;20068;-79
2023/03/11 06:42:19;;;;;;;16.45;8.13;;;;;;;;;;5038318;28;20033;-79
2023/03/11 06:44:48;;;;;;;12.52;6.75;;;;;;;;;;5038436;28;20468;-78
2023/03/11 06:47:14;;;;;;;12.27;5.65;;;;;;;;;;5038282;28;20124;-78
2023/03/11 06:49:41;;;;;;;11.55;6.65;;;;;;;;;;5056398;28;20119;-78
2023/03/11 06:52:07;;;;;;;11.48;6.00;;;;;;;;;;5054066;28;20462;-78
2023/03/11 06:54:32;;;;;;;12.30;6.05;;;;;;;;;;5054684;28;20060;-78
2023/03/11 06:56:58;;;;;;;10.52;6.00;;;;;;;;;;5037906;28;20025;-78
2023/03/11 06:59:24;;;;;;;10.63;5.00;;;;;;;;;;5055692;28;20065;-79
2023/03/11 07:01:49;;;;;;;9.25;5.30;;;;;;;;;;5055838;28;20029;-78
2023/03/11 07:04:15;;;;;;;10.75;5.70;;;;;;;;;;5021262;28;20374;-78
2023/03/11 07:06:41;;;;;;;9.93;5.10;;;;;;;;;;5037874;28;20414;-78
2023/03/11 07:09:08;;;;;;;11.63;5.75;;;;;;;;;;5054585;28;20025;-79
2023/03/11 07:11:33;;;;;;;15.73;6.90;;;;;;;;;;5054231;28;20037;-78
2023/03/11 07:13:58;;;;;;;13.90;7.00;;;;;;;;;;5055506;28;20120;-79
2023/03/11 07:16:25;;;;;;;19.42;9.60;;;;;;;;;;5054366;28;20029;-77
2023/03/11 07:18:51;;;;;;;12.48;6.28;;;;;;;;;;5037820;28;20040;-78
2023/03/11 07:21:18;;;;;;;9.82;5.85;;;;;;;;;;5054003;28;20455;-78
2023/03/11 07:23:44;;;;;;;6.85;4.43;;;;;;;;;;5054747;28;20036;-77
2023/03/11 07:26:13;;;;;;;10.13;4.43;;;;;;;;;;5037464;28;20047;-77
2023/03/11 07:28:39;;;;;;;6.20;3.53;;;;;;;;;;5053985;28;20566;-77
2023/03/11 07:31:25;;;;;;;7.70;3.63;;;;;;;;;;5053881;28;20116;-78
2023/03/11 07:33:50;;;;;;;6.80;4.10;;;;;;;;;;5055367;28;20102;-76
2023/03/11 07:36:17;;;;;;;6.32;3.10;;;;;;;;;;5053502;28;20052;-76
2023/03/11 07:38:43;;;;;;;5.60;2.90;;;;;;;;;;5053682;28;20041;-76
2023/03/11 07:41:10;;;;;;;4.65;2.50;;;;;;;;;;5070462;28;20110;-76
2023/03/11 07:43:35;;;;;;;6.03;2.60;;;;;;;;;;5053663;28;20025;-76
2023/03/11 07:46:05;;;;;;;5.30;2.70;;;;;;;;;;5053642;28;20025;-76
2023/03/11 07:48:31;;;;;;;5.68;2.42;;;;;;;;;;5053683;28;20100;-76
2023/03/11 07:51:04;;;;;;;3.03;2.33;;;;;;;;;;5037341;28;20402;-78
2023/03/11 07:53:29;;;;;;;4.55;2.88;;;;;;;;;;5052645;28;20104;-76
2023/03/11 07:55:56;;;;;;;6.78;3.47;;;;;;;;;;5054796;28;20427;-76
2023/03/11 07:58:21;;;;;;;6.65;3.78;;;;;;;;;;5037129;28;20029;-76
2023/03/11 08:00:47;;;;;;;6.05;3.28;;;;;;;;;;5054593;28;20382;-76
2023/03/11 08:03:12;;;;;;;6.45;3.80;;;;;;;;;;5053040;28;20123;-77
2023/03/11 08:05:37;;;;;;;6.50;3.40;;;;;;;;;;5054742;28;20106;-77
2023/03/11 08:08:03;;;;;;;5.78;4.10;;;;;;;;;;5058606;28;20028;-74
2023/03/11 08:10:28;;;;;;;6.75;4.70;;;;;;;;;;5074337;28;20031;-77
2023/03/11 08:12:54;;;;;;;6.63;4.45;;;;;;;;;;5075689;28;20017;-77
2023/03/11 08:15:19;;;;;;;7.75;4.80;;;;;;;;;;5074835;28;20059;-76
2023/03/11 08:17:45;;;;;;;11.73;5.13;;;;;;;;;;5072920;28;20068;-76
2023/03/11 08:20:11;;;;;;;6.97;4.95;;;;;;;;;;5075247;28;20462;-75
2023/03/11 08:22:36;;;;;;;12.60;5.68;;;;;;;;;;5074916;28;20032;-75
2023/03/11 08:25:02;;;;;;;12.93;5.43;;;;;;;;;;5073826;28;20374;-77
2023/03/11 08:27:28;;;;;;;15.32;5.85;;;;;;;;;;5073174;28;20086;-78
2023/03/11 08:29:53;;;;;;;8.10;5.38;;;;;;;;;;5072916;28;20441;-78
2023/03/11 08:32:19;;;;;;;9.80;6.32;;;;;;;;;;5056369;28;20028;-77
2023/03/11 08:34:44;;;;;;;8.30;5.43;;;;;;;;;;5072374;28;20038;-77
2023/03/11 08:37:10;;;;;;;6.55;5.00;;;;;;;;;;5072725;28;20020;-77
2023/03/11 08:39:35;;;;;;;8.95;5.25;;;;;;;;;;5073198;28;20505;-77
2023/03/11 08:42:01;;;;;;;9.55;6.30;;;;;;;;;;5055562;28;20143;-76
2023/03/11 08:44:27;;;;;;;8.38;5.63;;;;;;;;;;5071722;28;20046;-76
2023/03/11 08:46:53;;;;;;;8.45;5.45;;;;;;;;;;5072231;28;20086;-77
2023/03/11 08:49:18;;;;;;;9.00;6.18;;;;;;;;;;5072662;28;20037;-78
2023/03/11 08:51:44;;;;;;;7.65;5.70;;;;;;;;;;5073091;28;20034;-77
2023/03/11 08:54:09;;;;;;;11.18;5.60;;;;;;;;;;5073199;28;20362;-76
2023/03/11 08:56:35;;;;;;;6.82;4.45;;;;;;;;;;5074127;28;20124;-76
2023/03/11 08:59:00;;;;;;;7.28;4.03;;;;;;;;;;5055901;28;20435;-78
2023/03/11 09:01:26;;;;;;;5.93;3.75;;;;;;;;;;5072703;28;20499;-79
2023/03/11 09:03:51;;;;;;;9.50;4.55;;;;;;;;;;5075614;28;20398;-76
2023/03/11 09:06:17;;;;;;;10.43;3.90;;;;;;;;;;5078590;28;20031;-79
2023/03/11 09:08:42;;;;;;;4.70;3.00;;;;;;;;;;5063134;28;20043;-78
2023/03/11 09:11:08;;;;;;;9.60;4.07;;;;;;;;;;5079306;28;20032;-79
2023/03/11 09:13:34;;;;;;;8.90;3.70;;;;;;;;;;5079592;28;20035;-79
2023/03/11 09:16:00;;;;;;;6.35;3.53;;;;;;;;;;5079208;28;20024;-78
2023/03/11 09:18:26;;;;;;;21.55;9.57;;;;;;;;;;5080402;28;20088;-79
2023/03/11 09:20:51;;;;;;;7.60;4.45;;;;;;;;;;5062830;28;20390;-79
2023/03/11 09:23:17;;;;;;;7.45;3.50;;;;;;;;;;5079730;28;20028;-79
2023/03/11 09:25:42;;;;;;;8.05;3.42;;;;;;;;;;5078163;28;20044;-78
2023/03/11 09:28:08;;;;;;;7.80;4.13;;;;;;;;;;5077669;28;20512;-77
2023/03/11 09:30:34;;;;;;;7.72;3.80;;;;;;;;;;5043784;28;20039;-79
2023/03/11 09:33:00;;;;;;;5.45;3.60;;;;;;;;;;5062246;28;20036;-79
2023/03/11 09:35:25;;;;;;;5.32;3.08;;;;;;;;;;5043898;28;20363;-78
2023/03/11 09:37:50;;;;;;;7.97;2.97;;;;;;;;;;5077342;28;20032;-77
2023/03/11 09:40:19;;;;;;;8.60;4.57;;;;;;;;;;5077985;28;20398;-79
2023/03/11 09:43:03;;;;;;;11.27;3.20;;;;;;;;;;5077754;28;20028;-80
2023/03/11 09:45:33;;;;;;;6.55;2.88;;;;;;;;;;5078739;28;20036;-79
2023/03/11 09:48:15;;;;;;;6.53;3.15;;;;;;;;;;5061026;28;20031;-79
2023/03/11 09:50:59;;;;;;;9.50;3.65;;;;;;;;;;5082763;28;20032;-78
2023/03/11 09:53:40;;;;;;;6.50;3.33;;;;;;;;;;5062853;28;20050;-78
2023/03/11 09:56:07;;;;;;;8.70;3.38;;;;;;;;;;5061140;28;20038;-79
2023/03/11 09:58:35;;;;;;;5.05;2.78;;;;;;;;;;5061220;28;20048;-79
2023/03/11 10:01:02;;;;;;;4.85;2.97;;;;;;;;;;5079560;28;20034;-79
2023/03/11 10:03:32;;;;;;;8.52;3.35;;;;;;;;;;5062086;28;20410;-78
2023/03/11 10:06:20;;;;;;;6.88;3.63;;;;;;;;;;5041505;28;20537;-79
2023/03/11 10:08:59;;;;;;;6.25;3.60;;;;;;;;;;5062629;28;20033;-78
2023/03/11 10:11:57;;;;;;;7.13;3.90;;;;;;;;;;5042391;28;20090;-79
2023/03/11 10:14:41;;;;;;;8.20;4.00;;;;;;;;;;5058360;28;20435;-79
2023/03/11 10:17:18;;;;;;;7.57;2.92;;;;;;;;;;5056223;28;20115;-80
2023/03/11 10:20:23;;;;;;;7.88;3.22;;;;;;;;;;5055535;28;20123;-78
2023/03/11 10:23:00;;;;;;;25.30;12.18;;;;;;;;;;5056896;28;20075;-79
2023/03/11 10:25:29;;;;;;;10.05;5.53;;;;;;;;;;5056568;28;20147;-79
2023/03/11 10:28:07;;;;;;;10.27;7.07;;;;;;;;;;5055837;28;20042;-78
2023/03/11 10:30:35;;;;;;;23.75;13.40;;;;;;;;;;5055985;28;20033;-79
2023/03/11 10:33:06;;;;;;;5.18;2.90;;;;;;;;;;5055090;28;20044;-80
2023/03/11 10:35:39;;;;;;;26.58;8.60;;;;;;;;;;5055863;28;20071;-79
2023/03/11 10:38:27;;;;;;;14.75;6.05;;;;;;;;;;5054981;28;20025;-79
2023/03/11 10:40:55;;;;;;;18.90;6.05;;;;;;;;;;5038588;28;20064;-77
2023/03/11 10:43:30;;;;;;;15.75;7.03;;;;;;;;;;5055219;28;20374;-77
2023/03/11 10:45:56;;;;;;;14.98;5.85;;;;;;;;;;5054864;28;20033;-77
2023/03/11 10:48:21;;;;;;;9.65;5.10;;;;;;;;;;5055024;28;20430;-79
2023/03/11 10:50:56;;;;;;;12.32;4.95;;;;;;;;;;5071843;28;20132;-79
2023/03/11 10:53:21;;;;;;;12.95;4.50;;;;;;;;;;5056029;28;20025;-80
2023/03/11 10:55:51;;;;;;;9.10;4.60;;;;;;;;;;5055938;28;20108;-78
2023/03/11 10:58:19;;;;;;;7.22;4.32;;;;;;;;;;5054266;28;20451;-78
2023/03/11 11:00:45;;;;;;;7.05;3.85;;;;;;;;;;5038299;28;20478;-77
2023/03/11 11:03:19;;;;;;;12.20;4.32;;;;;;;;;;5038233;28;20060;-77
2023/03/11 11:05:46;;;;;;;8.68;4.50;;;;;;;;;;5054724;28;20053;-77
2023/03/11 11:08:15;;;;;;;10.18;4.50;;;;;;;;;;5054616;28;20643;-77
2023/03/11 11:10:58;;;;;;;9.65;4.50;;;;;;;;;;5054422;28;20450;-78
2023/03/11 11:13:29;;;;;;;6.72;3.90;;;;;;;;;;5054308;28;20040;-78
2023/03/11 11:15:58;;;;;;;14.10;4.82;;;;;;;;;;5054741;28;20051;-77
2023/03/11 11:18:43;;;;;;;11.60;6.23;;;;;;;;;;5053131;28;20123;-77
2023/03/11 11:21:32;;;;;;;12.23;5.88;;;;;;;;;;5037813;28;20043;-79
2023/03/11 11:24:09;;;;;;;10.65;6.30;;;;;;;;;;5053312;28;20033;-78
2023/03/11 11:26:35;;;;;;;16.40;6.82;;;;;;;;;;5036460;28;20029;-78
2023/03/11 11:29:06;;;;;;;13.18;7.30;;;;;;;;;;5053359;28;20112;-78
2023/03/11 11:31:32;;;;;;;12.18;7.82;;;;;;;;;;5020357;28;20047;-79
2023/03/11 11:33:57;;;;;;;11.57;6.97;;;;;;;;;;5036421;28;20033;-78
2023/03/11 11:36:26;;;;;;;15.70;8.30;;;;;;;;;;5053309;28;20129;-78
2023/03/11 11:38:53;;;;;;;15.83;9.23;;;;;;;;;;5019306;28;20048;-79
2023/03/11 11:41:20;;;;;;;15.95;10.52;;;;;;;;;;5019245;28;20436;-78
2023/03/11 11:43:53;;;;;;;16.30;9.38;;;;;;;;;;5052112;28;20033;-78
2023/03/11 11:46:41;;;;;;;12.85;6.47;;;;;;;;;;5052439;28;20025;-78
2023/03/11 11:49:18;;;;;;;10.80;6.55;;;;;;;;;;5052999;28;20386;-80
2023/03/11 11:51:56;;;;;;;11.65;6.13;;;;;;;;;;5053466;28;20446;-78
2023/03/11 11:54:33;;;;;;;15.43;6.72;;;;;;;;;;5038348;28;20075;-79
2023/03/11 11:56:58;;;;;;;10.20;5.32;;;;;;;;;;5037397;28;20050;-79
2023/03/11 11:59:24;;;;;;;18.20;6.68;;;;;;;;;;5036984;28;20104;-79
2023/03/11 12:02:02;;;;;;;13.98;5.68;;;;;;;;;;5055233;28;20394;-78
2023/03/11 12:04:33;;;;;;;18.20;6.07;;;;;;;;;;5053638;28;20029;-78
2023/03/11 12:07:23;;;;;;;10.48;5.55;;;;;;;;;;5053945;28;20044;-79
2023/03/11 12:09:54;;;;;;;11.85;5.80;;;;;;;;;;5052990;28;20454;-79
2023/03/11 12:12:28;;;;;;;12.40;5.15;;;;;;;;;;5054440;28;20067;-79
2023/03/11 12:14:59;;;;;;;9.57;5.10;;;;;;;;;;5053286;28;20025;-79
2023/03/11 12:17:25;;;;;;;12.52;4.93;;;;;;;;;;5054679;28;20035;-79
2023/03/11 12:19:50;;;;;;;10.48;4.30;;;;;;;;;;5020251;28;20029;-78
2023/03/11 12:23:01;;;;;;;9.55;4.57;;;;;;;;;;5053343;28;20658;-79
2023/03/11 12:25:31;;;;;;;10.70;4.60;;;;;;;;;;5037464;28;20047;-78
2023/03/11 12:28:08;;;;;;;10.00;4.22;;;;;;;;;;5036883;28;20029;-80
2023/03/11 12:30:53;;;;;;;5.97;3.60;;;;;;;;;;5054064;28;20032;-78
2023/03/11 12:33:22;;;;;;;12.68;3.58;;;;;;;;;;5019827;28;20041;-78
2023/03/11 12:35:51;;;;;;;9.38;3.45;;;;;;;;;;5054090;28;20028;-79
2023/03/11 12:38:19;;;;;;;10.40;2.63;;;;;;;;;;5052343;28;21284;-79
2023/03/11 12:40:49;;;;;;;13.73;2.90;;;;;;;;;;5036253;28;20024;-77
2023/03/11 12:43:34;;;;;;;11.18;2.83;;;;;;;;;;5036358;28;20458;-78
2023/03/11 12:45:59;;;;;;;13.93;2.72;;;;;;;;;;5052705;28;20489;-78
2023/03/11 12:48:43;;;;;;;7.05;2.28;;;;;;;;;;5053779;28;20097;-78
2023/03/11 12:51:33;;;;;;;14.38;2.70;;;;;;;;;;5052640;28;20082;-77
2023/03/11 12:53:58;;;;;;;9.70;2.03;;;;;;;;;;5052508;28;20025;-78
2023/03/11 12:56:24;;;;;;;8.15;2.10;;;;;;;;;;5019476;28;20613;-79
2023/03/11 12:59:30;;;;;;;13.65;2.22;;;;;;;;;;5053786;28;20370;-79
2023/03/11 13:02:37;;;;;;;15.88;2.33;;;;;;;;;;5042962;28;20068;-78
2023/03/11 13:05:32;;;;;;;10.07;2.20;;;;;;;;;;5039137;28;20152;-78
2023/03/11 13:07:59;;;;;;;16.40;2.42;;;;;;;;;;4993358;28;20447;-78
2023/03/11 13:10:45;;;;;;;12.00;2.20;;;;;;;;;;5035842;28;20124;-78
2023/03/11 13:13:33;;;;;;;7.45;1.77;;;;;;;;;;5019564;28;20455;-78
2023/03/11 13:16:11;;;;;;;11.60;2.00;;;;;;;;;;5052380;28;20043;-77
2023/03/11 13:18:37;;;;;;;10.93;2.17;;;;;;;;;;5053696;28;20036;-77
2023/03/11 13:21:03;;;;;;;17.08;2.40;;;;;;;;;;5035880;28;20405;-78
2023/03/11 13:23:33;;;;;;;10.45;2.60;;;;;;;;;;5035561;28;20029;-78
2023/03/11 13:26:51;;;;;;;13.55;3.28;;;;;;;;;;5035904;28;20029;-81
2023/03/11 13:29:51;;;;;;;15.40;2.92;;;;;;;;;;5041787;28;20522;-78
2023/03/11 13:32:35;;;;;;;;;;;;;;;;;;4956819;28;20523;-78
2023/03/11 13:35:16;;;;;;;14.48;4.57;;;;;;;;;;5046680;28;19913;-77
2023/03/11 13:37:50;;;;;;;9.85;3.15;;;;;;;;;;5052217;28;20086;-78
2023/03/11 13:40:25;;;;;;;17.67;3.35;;;;;;;;;;5035632;28;20258;-78
2023/03/11 13:42:51;;;;;;;19.98;4.45;;;;;;;;;;5052373;28;20029;-80
2023/03/11 13:45:29;;;;;;;10.13;4.00;;;;;;;;;;5035894;28;20525;-81
2023/03/11 13:47:57;;;;;;;10.65;2.50;;;;;;;;;;5051976;28;20041;-81
2023/03/11 13:50:28;;;;;;;12.20;3.30;;;;;;;;;;5036619;28;20029;-80
2023/03/11 13:52:54;;;;;;;15.00;3.47;;;;;;;;;;5055616;28;20033;-77
2023/03/11 13:55:21;;;;;;;14.02;3.58;;;;;;;;;;5039311;28;20029;-78
2023/03/11 13:57:56;;;;;;;26.58;3.78;;;;;;;;;;5039460;28;20438;-80
2023/03/11 14:00:23;;;;;;;14.00;2.33;;;;;;;;;;5040060;28;20167;-78
2023/03/11 14:02:50;;;;;;;10.23;3.22;;;;;;;;;;5056876;28;20029;-80
2023/03/11 14:05:29;;;;;;;17.42;3.78;;;;;;;;;;5039489;28;20036;-80
2023/03/11 14:07:54;;;;;;;12.65;3.97;;;;;;;;;;5039522;28;20020;-78
2023/03/11 14:10:27;;;;;;;27.50;7.18;;;;;;;;;;5022287;28;20475;-77
2023/03/11 14:13:16;;;;;;;18.48;7.63;;;;;;;;;;5055495;28;20039;-77
2023/03/11 14:15:50;;;;;;;29.55;14.57;;;;;;;;;;5055671;28;20175;-78
2023/03/11 14:18:27;;;;;;;49.40;24.25;;;;;;;;;;5055733;28;20106;-77
2023/03/11 14:20:53;;;;;;;45.30;14.85;;;;;;;;;;5038674;28;20111;-78
2023/03/11 14:23:18;;;;;;;22.55;9.00;;;;;;;;;;5038691;28;20431;-78
2023/03/11 14:25:44;;;;;;;11.20;4.50;;;;;;;;;;5038721;28;20465;-81
2023/03/11 14:28:17;;;;;;;23.27;6.30;;;;;;;;;;5055284;28;20051;-78
2023/03/11 14:30:53;;;;;;;14.02;3.75;;;;;;;;;;5055266;28;20025;-79
2023/03/11 14:33:20;;;;;;;19.08;6.72;;;;;;;;;;5039955;28;20036;-80
2023/03/11 14:36:01;;;;;;;10.93;2.83;;;;;;;;;;5038816;28;20136;-80
2023/03/11 14:38:28;;;;;;;13.70;5.32;;;;;;;;;;5038691;28;20053;-79
2023/03/11 14:40:58;;;;;;;11.27;5.38;;;;;;;;;;5055223;28;20036;-79
2023/03/11 14:43:23;;;;;;;14.60;6.07;;;;;;;;;;5038325;28;20493;-79